sensor_id;sensor_type;location;lat;lon;timestamp;temperature;humidity
7576;DHT22;3829;50.798;4.358;2023-04-06T00:01:34;8.40;99.90
7576;DHT22;3829;50.798;4.358;2023-04-06T00:03:59;8.40;99.90
7576;DHT22;3829;50.798;4.358;2023-04-06T00:06:25;8.50;99.90
7576;DHT22;3829;50.798;4.358;2023-04-06T00:08:52;8.50;99.90
7576;DHT22;3829;50.798;4.358;2023-04-06T00:11:17;8.40;99.90
7576;DHT22;3829;50.798;4.358;2023-04-06T00:13:43;8.40;99.90
7576;DHT22;3829;50.798;4.358;2023-04-06T00:16:09;8.40;99.90
7576;DHT22;3829;50.798;4.358;2023-04-06T00:18:34;8.40;99.90
7576;DHT22;3829;50.798;4.358;2023-04-06T00:21:00;8.40;99.90
7576;DHT22;3829;50.798;4.358;2023-04-06T00:23:26;8.40;99.90
7576;DHT22;3829;50.798;4.358;2023-04-06T00:25:51;8.40;99.90
7576;DHT22;3829;50.798;4.358;2023-04-06T00:28:17;8.40;99.90
7576;DHT22;3829;50.798;4.358;2023-04-06T00:30:45;8.40;99.90
7576;DHT22;3829;50.798;4.358;2023-04-06T00:33:11;8.40;99.90
7576;DHT22;3829;50.798;4.358;2023-04-06T00:35:36;8.40;99.90
7576;DHT22;3829;50.798;4.358;2023-04-06T00:38:02;8.40;99.90
7576;DHT22;3829;50.798;4.358;2023-04-06T00:40:27;8.30;99.90
7576;DHT22;3829;50.798;4.358;2023-04-06T00:42:54;8.40;99.90
7576;DHT22;3829;50.798;4.358;2023-04-06T00:45:20;8.30;99.90
7576;DHT22;3829;50.798;4.358;2023-04-06T00:47:46;8.40;99.90
7576;DHT22;3829;50.798;4.358;2023-04-06T00:50:11;8.40;99.90
7576;DHT22;3829;50.798;4.358;2023-04-06T00:52:37;8.30;99.90
7576;DHT22;3829;50.798;4.358;2023-04-06T00:55:03;8.30;99.90
7576;DHT22;3829;50.798;4.358;2023-04-06T00:57:29;8.30;99.90
7576;DHT22;3829;50.798;4.358;2023-04-06T00:59:56;8.20;99.90
7576;DHT22;3829;50.798;4.358;2023-04-06T01:02:23;8.20;99.90
7576;DHT22;3829;50.798;4.358;2023-04-06T01:04:48;8.10;99.90
7576;DHT22;3829;50.798;4.358;2023-04-06T01:07:14;8.00;99.90
7576;DHT22;3829;50.798;4.358;2023-04-06T01:09:39;8.00;99.90
7576;DHT22;3829;50.798;4.358;2023-04-06T01:12:07;8.10;99.90
7576;DHT22;3829;50.798;4.358;2023-04-06T01:14:32;8.00;99.90
7576;DHT22;3829;50.798;4.358;2023-04-06T01:16:59;8.00;99.90
7576;DHT22;3829;50.798;4.358;2023-04-06T01:19:26;8.00;99.90
7576;DHT22;3829;50.798;4.358;2023-04-06T01:21:51;8.00;99.90
7576;DHT22;3829;50.798;4.358;2023-04-06T01:24:19;8.00;99.90
7576;DHT22;3829;50.798;4.358;2023-04-06T01:26:45;8.00;99.90
7576;DHT22;3829;50.798;4.358;2023-04-06T01:29:11;7.90;99.90
7576;DHT22;3829;50.798;4.358;2023-04-06T01:31:37;8.00;99.90
7576;DHT22;3829;50.798;4.358;2023-04-06T01:34:03;7.90;99.90
7576;DHT22;3829;50.798;4.358;2023-04-06T01:36:28;7.80;99.90
7576;DHT22;3829;50.798;4.358;2023-04-06T01:38:54;7.70;99.90
7576;DHT22;3829;50.798;4.358;2023-04-06T01:41:19;7.70;99.90
7576;DHT22;3829;50.798;4.358;2023-04-06T01:43:47;7.80;99.90
7576;DHT22;3829;50.798;4.358;2023-04-06T01:46:13;7.70;99.90
7576;DHT22;3829;50.798;4.358;2023-04-06T01:48:39;7.70;99.90
7576;DHT22;3829;50.798;4.358;2023-04-06T01:51:04;7.60;99.90
7576;DHT22;3829;50.798;4.358;2023-04-06T01:53:30;7.60;99.90
7576;DHT22;3829;50.798;4.358;2023-04-06T01:55:56;7.50;99.90
7576;DHT22;3829;50.798;4.358;2023-04-06T01:58:21;7.50;99.90
7576;DHT22;3829;50.798;4.358;2023-04-06T02:00:47;7.50;99.90
7576;DHT22;3829;50.798;4.358;2023-04-06T02:03:13;7.50;99.90
7576;DHT22;3829;50.798;4.358;2023-04-06T02:05:40;7.50;99.90
7576;DHT22;3829;50.798;4.358;2023-04-06T02:08:08;7.40;99.90
7576;DHT22;3829;50.798;4.358;2023-04-06T02:10:34;7.20;99.90
7576;DHT22;3829;50.798;4.358;2023-04-06T02:13:00;7.30;99.90
7576;DHT22;3829;50.798;4.358;2023-04-06T02:15:26;7.30;99.90
7576;DHT22;3829;50.798;4.358;2023-04-06T02:17:52;7.40;99.90
7576;DHT22;3829;50.798;4.358;2023-04-06T02:20:18;7.50;99.90
7576;DHT22;3829;50.798;4.358;2023-04-06T02:22:44;7.40;99.90
7576;DHT22;3829;50.798;4.358;2023-04-06T02:25:10;7.30;99.90
7576;DHT22;3829;50.798;4.358;2023-04-06T02:27:36;7.30;99.90
7576;DHT22;3829;50.798;4.358;2023-04-06T02:30:05;7.20;99.90
7576;DHT22;3829;50.798;4.358;2023-04-06T02:32:31;7.20;99.90
7576;DHT22;3829;50.798;4.358;2023-04-06T02:34:56;7.30;99.90
7576;DHT22;3829;50.798;4.358;2023-04-06T02:37:22;7.30;99.90
7576;DHT22;3829;50.798;4.358;2023-04-06T02:39:49;7.20;99.90
7576;DHT22;3829;50.798;4.358;2023-04-06T02:42:15;7.20;99.90
7576;DHT22;3829;50.798;4.358;2023-04-06T02:44:41;7.20;99.90
7576;DHT22;3829;50.798;4.358;2023-04-06T02:47:07;7.20;99.90
7576;DHT22;3829;50.798;4.358;2023-04-06T02:49:33;7.30;99.90
7576;DHT22;3829;50.798;4.358;2023-04-06T02:51:59;7.30;99.90
7576;DHT22;3829;50.798;4.358;2023-04-06T02:54:24;7.20;99.90
7576;DHT22;3829;50.798;4.358;2023-04-06T02:56:50;7.20;99.90
7576;DHT22;3829;50.798;4.358;2023-04-06T02:59:15;7.10;99.90
7576;DHT22;3829;50.798;4.358;2023-04-06T03:01:41;7.20;99.90
7576;DHT22;3829;50.798;4.358;2023-04-06T03:04:07;7.20;99.90
7576;DHT22;3829;50.798;4.358;2023-04-06T03:06:32;7.20;99.90
7576;DHT22;3829;50.798;4.358;2023-04-06T03:08:58;7.20;99.90
7576;DHT22;3829;50.798;4.358;2023-04-06T03:11:24;7.20;99.90
7576;DHT22;3829;50.798;4.358;2023-04-06T03:13:51;7.20;99.90
7576;DHT22;3829;50.798;4.358;2023-04-06T03:16:16;7.10;99.90
7576;DHT22;3829;50.798;4.358;2023-04-06T03:18:42;7.10;99.90
7576;DHT22;3829;50.798;4.358;2023-04-06T03:21:10;7.20;99.90
7576;DHT22;3829;50.798;4.358;2023-04-06T03:23:35;7.10;99.90
7576;DHT22;3829;50.798;4.358;2023-04-06T03:26:02;7.20;99.90
7576;DHT22;3829;50.798;4.358;2023-04-06T03:28:27;7.20;99.90
7576;DHT22;3829;50.798;4.358;2023-04-06T03:30:53;7.20;99.90
7576;DHT22;3829;50.798;4.358;2023-04-06T03:33:19;7.20;99.90
7576;DHT22;3829;50.798;4.358;2023-04-06T03:35:44;7.20;99.90
7576;DHT22;3829;50.798;4.358;2023-04-06T03:38:10;7.20;99.90
7576;DHT22;3829;50.798;4.358;2023-04-06T03:40:36;7.20;99.90
7576;DHT22;3829;50.798;4.358;2023-04-06T03:43:01;7.30;99.90
7576;DHT22;3829;50.798;4.358;2023-04-06T03:45:27;7.20;99.90
7576;DHT22;3829;50.798;4.358;2023-04-06T03:47:52;7.10;99.90
7576;DHT22;3829;50.798;4.358;2023-04-06T03:50:18;7.20;99.90
7576;DHT22;3829;50.798;4.358;2023-04-06T03:52:44;7.20;99.90
7576;DHT22;3829;50.798;4.358;2023-04-06T03:55:10;7.20;99.90
7576;DHT22;3829;50.798;4.358;2023-04-06T03:57:36;7.20;99.90
7576;DHT22;3829;50.798;4.358;2023-04-06T04:00:03;7.40;99.90
7576;DHT22;3829;50.798;4.358;2023-04-06T04:02:29;7.40;99.90
7576;DHT22;3829;50.798;4.358;2023-04-06T04:04:54;7.50;99.90
7576;DHT22;3829;50.798;4.358;2023-04-06T04:07:20;7.60;99.90
7576;DHT22;3829;50.798;4.358;2023-04-06T04:09:46;7.50;99.90
7576;DHT22;3829;50.798;4.358;2023-04-06T04:12:11;7.50;99.90
7576;DHT22;3829;50.798;4.358;2023-04-06T04:14:37;7.70;99.90
7576;DHT22;3829;50.798;4.358;2023-04-06T04:17:02;7.70;99.90
7576;DHT22;3829;50.798;4.358;2023-04-06T04:19:28;7.70;99.90
7576;DHT22;3829;50.798;4.358;2023-04-06T04:21:53;7.70;99.90
7576;DHT22;3829;50.798;4.358;2023-04-06T04:24:19;7.80;99.90
7576;DHT22;3829;50.798;4.358;2023-04-06T04:26:45;7.70;99.90
7576;DHT22;3829;50.798;4.358;2023-04-06T04:29:10;7.90;99.90
7576;DHT22;3829;50.798;4.358;2023-04-06T04:31:36;7.90;99.90
7576;DHT22;3829;50.798;4.358;2023-04-06T04:34:02;7.90;99.90
7576;DHT22;3829;50.798;4.358;2023-04-06T04:36:27;7.90;99.90
7576;DHT22;3829;50.798;4.358;2023-04-06T04:38:53;8.00;99.90
7576;DHT22;3829;50.798;4.358;2023-04-06T04:41:19;8.10;99.90
7576;DHT22;3829;50.798;4.358;2023-04-06T04:43:44;8.10;99.90
7576;DHT22;3829;50.798;4.358;2023-04-06T04:46:11;8.10;99.90
7576;DHT22;3829;50.798;4.358;2023-04-06T04:48:36;8.20;99.90
7576;DHT22;3829;50.798;4.358;2023-04-06T04:51:03;8.10;99.90
7576;DHT22;3829;50.798;4.358;2023-04-06T04:53:29;8.10;99.90
7576;DHT22;3829;50.798;4.358;2023-04-06T04:55:55;8.20;99.90
7576;DHT22;3829;50.798;4.358;2023-04-06T04:58:21;8.30;99.90
7576;DHT22;3829;50.798;4.358;2023-04-06T05:00:46;8.30;99.90
7576;DHT22;3829;50.798;4.358;2023-04-06T05:03:23;8.30;99.90
7576;DHT22;3829;50.798;4.358;2023-04-06T05:05:50;8.30;99.90
7576;DHT22;3829;50.798;4.358;2023-04-06T05:08:16;8.30;99.90
7576;DHT22;3829;50.798;4.358;2023-04-06T05:10:42;8.30;99.90
7576;DHT22;3829;50.798;4.358;2023-04-06T05:13:08;8.40;99.90
7576;DHT22;3829;50.798;4.358;2023-04-06T05:15:33;8.50;99.90
7576;DHT22;3829;50.798;4.358;2023-04-06T05:18:12;8.50;99.90
7576;DHT22;3829;50.798;4.358;2023-04-06T05:20:39;8.50;99.90
7576;DHT22;3829;50.798;4.358;2023-04-06T05:23:04;8.50;99.90
7576;DHT22;3829;50.798;4.358;2023-04-06T05:25:30;8.60;99.90
7576;DHT22;3829;50.798;4.358;2023-04-06T05:27:56;8.70;99.90
7576;DHT22;3829;50.798;4.358;2023-04-06T05:30:22;8.70;99.90
7576;DHT22;3829;50.798;4.358;2023-04-06T05:32:48;8.60;99.90
7576;DHT22;3829;50.798;4.358;2023-04-06T05:35:13;8.50;99.90
7576;DHT22;3829;50.798;4.358;2023-04-06T05:37:39;8.50;99.90
7576;DHT22;3829;50.798;4.358;2023-04-06T05:40:05;8.50;99.90
7576;DHT22;3829;50.798;4.358;2023-04-06T05:42:38;8.60;99.90
7576;DHT22;3829;50.798;4.358;2023-04-06T05:45:07;8.60;99.90
7576;DHT22;3829;50.798;4.358;2023-04-06T05:47:33;8.70;99.90
7576;DHT22;3829;50.798;4.358;2023-04-06T05:49:59;8.80;99.90
7576;DHT22;3829;50.798;4.358;2023-04-06T05:52:25;8.90;99.90
7576;DHT22;3829;50.798;4.358;2023-04-06T05:54:51;8.90;99.90
7576;DHT22;3829;50.798;4.358;2023-04-06T05:57:17;8.90;99.90
7576;DHT22;3829;50.798;4.358;2023-04-06T05:59:43;9.00;99.90
7576;DHT22;3829;50.798;4.358;2023-04-06T06:02:08;9.00;99.90
7576;DHT22;3829;50.798;4.358;2023-04-06T06:04:34;9.10;99.90
7576;DHT22;3829;50.798;4.358;2023-04-06T06:07:00;9.20;99.90
7576;DHT22;3829;50.798;4.358;2023-04-06T06:09:26;9.30;99.90
7576;DHT22;3829;50.798;4.358;2023-04-06T06:11:51;9.40;99.90
7576;DHT22;3829;50.798;4.358;2023-04-06T06:14:17;9.40;99.90
7576;DHT22;3829;50.798;4.358;2023-04-06T06:16:43;9.40;99.90
7576;DHT22;3829;50.798;4.358;2023-04-06T06:19:08;9.50;99.90
7576;DHT22;3829;50.798;4.358;2023-04-06T06:21:34;9.40;99.90
7576;DHT22;3829;50.798;4.358;2023-04-06T06:23:59;9.30;99.90
7576;DHT22;3829;50.798;4.358;2023-04-06T06:26:25;9.30;99.90
7576;DHT22;3829;50.798;4.358;2023-04-06T06:28:51;9.20;99.90
7576;DHT22;3829;50.798;4.358;2023-04-06T06:31:17;9.20;99.90
7576;DHT22;3829;50.798;4.358;2023-04-06T06:33:45;8.90;99.90
7576;DHT22;3829;50.798;4.358;2023-04-06T06:36:11;8.80;99.90
7576;DHT22;3829;50.798;4.358;2023-04-06T06:38:37;8.80;99.90
7576;DHT22;3829;50.798;4.358;2023-04-06T06:41:03;8.60;99.90
7576;DHT22;3829;50.798;4.358;2023-04-06T06:43:29;8.60;99.90
7576;DHT22;3829;50.798;4.358;2023-04-06T06:45:54;8.50;99.90
7576;DHT22;3829;50.798;4.358;2023-04-06T06:48:20;8.40;99.90
7576;DHT22;3829;50.798;4.358;2023-04-06T06:50:47;8.30;99.90
7576;DHT22;3829;50.798;4.358;2023-04-06T06:53:13;8.30;99.90
7576;DHT22;3829;50.798;4.358;2023-04-06T06:55:39;8.10;99.90
7576;DHT22;3829;50.798;4.358;2023-04-06T06:58:04;7.90;99.90
7576;DHT22;3829;50.798;4.358;2023-04-06T07:00:31;8.00;99.90
7576;DHT22;3829;50.798;4.358;2023-04-06T07:02:57;8.00;99.90
7576;DHT22;3829;50.798;4.358;2023-04-06T07:05:22;8.00;99.90
7576;DHT22;3829;50.798;4.358;2023-04-06T07:07:48;8.10;99.90
7576;DHT22;3829;50.798;4.358;2023-04-06T07:10:13;8.20;99.90
7576;DHT22;3829;50.798;4.358;2023-04-06T07:12:40;8.20;99.90
7576;DHT22;3829;50.798;4.358;2023-04-06T07:15:06;8.30;99.90
7576;DHT22;3829;50.798;4.358;2023-04-06T07:17:32;8.30;99.90
7576;DHT22;3829;50.798;4.358;2023-04-06T07:19:57;8.30;99.90
7576;DHT22;3829;50.798;4.358;2023-04-06T07:22:23;8.30;99.90
7576;DHT22;3829;50.798;4.358;2023-04-06T07:24:49;8.30;99.90
7576;DHT22;3829;50.798;4.358;2023-04-06T07:27:14;8.30;99.90
7576;DHT22;3829;50.798;4.358;2023-04-06T07:29:41;8.20;99.90
7576;DHT22;3829;50.798;4.358;2023-04-06T07:32:07;8.20;99.90
7576;DHT22;3829;50.798;4.358;2023-04-06T07:34:33;8.10;99.90
7576;DHT22;3829;50.798;4.358;2023-04-06T07:36:59;8.20;99.90
7576;DHT22;3829;50.798;4.358;2023-04-06T07:39:26;8.20;99.90
7576;DHT22;3829;50.798;4.358;2023-04-06T07:41:52;8.30;99.90
7576;DHT22;3829;50.798;4.358;2023-04-06T07:44:18;8.40;99.90
7576;DHT22;3829;50.798;4.358;2023-04-06T07:46:43;8.40;99.90
7576;DHT22;3829;50.798;4.358;2023-04-06T07:49:09;8.40;99.90
7576;DHT22;3829;50.798;4.358;2023-04-06T07:51:37;8.30;99.90
7576;DHT22;3829;50.798;4.358;2023-04-06T07:54:02;8.30;99.90
7576;DHT22;3829;50.798;4.358;2023-04-06T07:56:28;8.30;99.90
7576;DHT22;3829;50.798;4.358;2023-04-06T07:58:54;8.30;99.90
7576;DHT22;3829;50.798;4.358;2023-04-06T08:01:23;8.30;99.90
7576;DHT22;3829;50.798;4.358;2023-04-06T08:03:49;8.30;99.90
7576;DHT22;3829;50.798;4.358;2023-04-06T08:06:16;8.40;99.90
7576;DHT22;3829;50.798;4.358;2023-04-06T08:08:42;8.30;99.90
7576;DHT22;3829;50.798;4.358;2023-04-06T08:11:08;8.30;99.90
7576;DHT22;3829;50.798;4.358;2023-04-06T08:13:34;8.20;99.90
7576;DHT22;3829;50.798;4.358;2023-04-06T08:16:00;8.30;99.90
7576;DHT22;3829;50.798;4.358;2023-04-06T08:18:26;8.30;99.90
7576;DHT22;3829;50.798;4.358;2023-04-06T08:20:52;8.40;99.90
7576;DHT22;3829;50.798;4.358;2023-04-06T08:23:18;8.50;99.90
7576;DHT22;3829;50.798;4.358;2023-04-06T08:25:43;8.40;99.90
7576;DHT22;3829;50.798;4.358;2023-04-06T08:28:09;8.40;99.90
7576;DHT22;3829;50.798;4.358;2023-04-06T08:30:35;8.50;99.90
7576;DHT22;3829;50.798;4.358;2023-04-06T08:33:01;8.60;99.90
7576;DHT22;3829;50.798;4.358;2023-04-06T08:35:27;8.70;99.90
7576;DHT22;3829;50.798;4.358;2023-04-06T08:37:53;8.70;99.90
7576;DHT22;3829;50.798;4.358;2023-04-06T08:40:18;8.50;99.90
7576;DHT22;3829;50.798;4.358;2023-04-06T08:42:49;8.50;99.90
7576;DHT22;3829;50.798;4.358;2023-04-06T08:45:16;8.40;99.90
7576;DHT22;3829;50.798;4.358;2023-04-06T08:47:43;8.40;99.90
7576;DHT22;3829;50.798;4.358;2023-04-06T08:50:10;8.40;99.90
7576;DHT22;3829;50.798;4.358;2023-04-06T08:52:37;8.30;99.90
7576;DHT22;3829;50.798;4.358;2023-04-06T08:55:03;8.30;99.90
7576;DHT22;3829;50.798;4.358;2023-04-06T08:57:31;8.40;99.90
7576;DHT22;3829;50.798;4.358;2023-04-06T08:59:57;8.40;99.90
7576;DHT22;3829;50.798;4.358;2023-04-06T09:02:26;8.30;99.90
7576;DHT22;3829;50.798;4.358;2023-04-06T09:04:53;8.40;99.90
7576;DHT22;3829;50.798;4.358;2023-04-06T09:07:21;8.50;99.90
7576;DHT22;3829;50.798;4.358;2023-04-06T09:09:47;8.40;99.90
7576;DHT22;3829;50.798;4.358;2023-04-06T09:12:31;8.50;99.90
7576;DHT22;3829;50.798;4.358;2023-04-06T09:14:58;8.60;99.90
7576;DHT22;3829;50.798;4.358;2023-04-06T09:17:29;8.60;99.90
7576;DHT22;3829;50.798;4.358;2023-04-06T09:19:56;8.50;99.90
7576;DHT22;3829;50.798;4.358;2023-04-06T09:22:21;8.50;99.90
7576;DHT22;3829;50.798;4.358;2023-04-06T09:24:52;8.50;99.90
7576;DHT22;3829;50.798;4.358;2023-04-06T09:27:29;8.50;99.90
7576;DHT22;3829;50.798;4.358;2023-04-06T09:30:06;8.60;99.90
7576;DHT22;3829;50.798;4.358;2023-04-06T09:32:32;8.60;99.90
7576;DHT22;3829;50.798;4.358;2023-04-06T09:35:09;8.60;99.90
7576;DHT22;3829;50.798;4.358;2023-04-06T09:37:35;8.70;99.90
7576;DHT22;3829;50.798;4.358;2023-04-06T09:40:07;8.60;99.90
7576;DHT22;3829;50.798;4.358;2023-04-06T09:42:34;8.50;99.90
7576;DHT22;3829;50.798;4.358;2023-04-06T09:45:02;8.50;99.90
7576;DHT22;3829;50.798;4.358;2023-04-06T09:47:32;8.60;99.90
7576;DHT22;3829;50.798;4.358;2023-04-06T09:50:00;8.50;99.90
7576;DHT22;3829;50.798;4.358;2023-04-06T09:52:33;8.40;99.90
7576;DHT22;3829;50.798;4.358;2023-04-06T09:55:04;8.40;99.90
7576;DHT22;3829;50.798;4.358;2023-04-06T09:57:50;8.40;99.90
7576;DHT22;3829;50.798;4.358;2023-04-06T10:00:17;8.40;99.90
7576;DHT22;3829;50.798;4.358;2023-04-06T10:05:50;8.70;99.90
7576;DHT22;3829;50.798;4.358;2023-04-06T10:08:19;8.70;99.90
7576;DHT22;3829;50.798;4.358;2023-04-06T10:10:46;8.70;99.90
7576;DHT22;3829;50.798;4.358;2023-04-06T10:13:12;8.70;99.90
7576;DHT22;3829;50.798;4.358;2023-04-06T10:15:38;8.70;99.90
7576;DHT22;3829;50.798;4.358;2023-04-06T10:18:05;8.80;99.90
7576;DHT22;3829;50.798;4.358;2023-04-06T10:20:38;8.80;99.90
7576;DHT22;3829;50.798;4.358;2023-04-06T10:23:09;8.80;99.90
7576;DHT22;3829;50.798;4.358;2023-04-06T10:25:39;8.90;99.90
7576;DHT22;3829;50.798;4.358;2023-04-06T10:28:07;9.00;99.90
7576;DHT22;3829;50.798;4.358;2023-04-06T10:30:34;9.20;99.90
7576;DHT22;3829;50.798;4.358;2023-04-06T10:32:59;9.10;99.90
7576;DHT22;3829;50.798;4.358;2023-04-06T10:35:36;9.20;99.90
7576;DHT22;3829;50.798;4.358;2023-04-06T10:38:05;9.20;99.90
7576;DHT22;3829;50.798;4.358;2023-04-06T10:40:31;9.20;99.90
7576;DHT22;3829;50.798;4.358;2023-04-06T10:43:17;9.20;99.90
7576;DHT22;3829;50.798;4.358;2023-04-06T10:45:44;9.40;99.90
7576;DHT22;3829;50.798;4.358;2023-04-06T10:48:17;9.60;99.90
7576;DHT22;3829;50.798;4.358;2023-04-06T10:50:46;9.40;99.90
7576;DHT22;3829;50.798;4.358;2023-04-06T10:53:19;9.20;99.90
7576;DHT22;3829;50.798;4.358;2023-04-06T10:55:45;9.20;99.90
7576;DHT22;3829;50.798;4.358;2023-04-06T10:58:12;9.30;99.90
7576;DHT22;3829;50.798;4.358;2023-04-06T11:00:47;9.30;99.90
7576;DHT22;3829;50.798;4.358;2023-04-06T11:03:13;9.30;99.90
7576;DHT22;3829;50.798;4.358;2023-04-06T11:05:47;9.20;99.90
7576;DHT22;3829;50.798;4.358;2023-04-06T11:08:42;9.20;99.90
7576;DHT22;3829;50.798;4.358;2023-04-06T11:11:10;9.30;99.90
7576;DHT22;3829;50.798;4.358;2023-04-06T11:13:42;9.40;99.90
7576;DHT22;3829;50.798;4.358;2023-04-06T11:16:40;9.50;99.90
7576;DHT22;3829;50.798;4.358;2023-04-06T11:19:06;9.50;99.90
7576;DHT22;3829;50.798;4.358;2023-04-06T11:21:48;9.50;99.90
7576;DHT22;3829;50.798;4.358;2023-04-06T11:24:21;9.60;99.90
7576;DHT22;3829;50.798;4.358;2023-04-06T11:26:56;9.60;99.90
7576;DHT22;3829;50.798;4.358;2023-04-06T11:29:25;9.50;99.90
7576;DHT22;3829;50.798;4.358;2023-04-06T11:32:00;9.50;99.90
7576;DHT22;3829;50.798;4.358;2023-04-06T11:34:27;9.50;99.90
7576;DHT22;3829;50.798;4.358;2023-04-06T11:37:00;9.50;99.90
7576;DHT22;3829;50.798;4.358;2023-04-06T11:39:28;9.70;99.90
7576;DHT22;3829;50.798;4.358;2023-04-06T11:42:01;9.80;99.90
7576;DHT22;3829;50.798;4.358;2023-04-06T11:44:35;9.80;99.90
7576;DHT22;3829;50.798;4.358;2023-04-06T11:47:11;9.80;99.90
7576;DHT22;3829;50.798;4.358;2023-04-06T11:49:38;9.90;99.90
7576;DHT22;3829;50.798;4.358;2023-04-06T11:52:15;9.80;99.90
7576;DHT22;3829;50.798;4.358;2023-04-06T11:54:41;9.80;99.90
7576;DHT22;3829;50.798;4.358;2023-04-06T11:57:08;9.90;99.90
7576;DHT22;3829;50.798;4.358;2023-04-06T11:59:34;9.50;99.90
7576;DHT22;3829;50.798;4.358;2023-04-06T12:02:04;9.40;99.90
7576;DHT22;3829;50.798;4.358;2023-04-06T12:04:30;9.50;99.90
7576;DHT22;3829;50.798;4.358;2023-04-06T12:06:56;9.50;99.90
7576;DHT22;3829;50.798;4.358;2023-04-06T12:09:22;9.80;99.90
7576;DHT22;3829;50.798;4.358;2023-04-06T12:11:47;10.00;99.90
7576;DHT22;3829;50.798;4.358;2023-04-06T12:14:13;9.90;99.90
7576;DHT22;3829;50.798;4.358;2023-04-06T12:16:39;9.90;99.90
7576;DHT22;3829;50.798;4.358;2023-04-06T12:19:05;9.90;99.90
7576;DHT22;3829;50.798;4.358;2023-04-06T12:21:31;10.00;99.90
7576;DHT22;3829;50.798;4.358;2023-04-06T12:23:58;10.00;99.90
7576;DHT22;3829;50.798;4.358;2023-04-06T12:26:24;9.80;99.90
7576;DHT22;3829;50.798;4.358;2023-04-06T12:28:50;9.70;99.90
7576;DHT22;3829;50.798;4.358;2023-04-06T12:31:17;9.70;99.90
7576;DHT22;3829;50.798;4.358;2023-04-06T12:33:44;9.70;99.90
7576;DHT22;3829;50.798;4.358;2023-04-06T12:36:15;9.70;99.90
7576;DHT22;3829;50.798;4.358;2023-04-06T12:38:44;9.60;99.90
7576;DHT22;3829;50.798;4.358;2023-04-06T12:41:11;9.70;99.90
7576;DHT22;3829;50.798;4.358;2023-04-06T12:43:37;9.70;99.90
7576;DHT22;3829;50.798;4.358;2023-04-06T12:46:03;9.60;99.90
7576;DHT22;3829;50.798;4.358;2023-04-06T12:48:29;9.40;99.90
7576;DHT22;3829;50.798;4.358;2023-04-06T12:51:01;9.30;99.90
7576;DHT22;3829;50.798;4.358;2023-04-06T12:53:27;9.30;99.90
7576;DHT22;3829;50.798;4.358;2023-04-06T12:55:54;9.20;99.90
7576;DHT22;3829;50.798;4.358;2023-04-06T12:58:20;9.10;99.90
7576;DHT22;3829;50.798;4.358;2023-04-06T13:00:47;9.00;99.90
7576;DHT22;3829;50.798;4.358;2023-04-06T13:03:13;9.10;99.90
7576;DHT22;3829;50.798;4.358;2023-04-06T13:05:49;9.10;99.90
7576;DHT22;3829;50.798;4.358;2023-04-06T13:08:15;9.20;99.90
7576;DHT22;3829;50.798;4.358;2023-04-06T13:10:47;9.10;99.90
7576;DHT22;3829;50.798;4.358;2023-04-06T13:13:14;9.00;99.90
7576;DHT22;3829;50.798;4.358;2023-04-06T13:15:40;9.10;99.90
7576;DHT22;3829;50.798;4.358;2023-04-06T13:18:07;9.10;99.90
7576;DHT22;3829;50.798;4.358;2023-04-06T13:20:33;9.20;99.90
7576;DHT22;3829;50.798;4.358;2023-04-06T13:22:58;9.20;99.90
7576;DHT22;3829;50.798;4.358;2023-04-06T13:25:24;9.20;99.90
7576;DHT22;3829;50.798;4.358;2023-04-06T13:27:49;9.20;99.90
7576;DHT22;3829;50.798;4.358;2023-04-06T13:30:16;9.20;99.90
7576;DHT22;3829;50.798;4.358;2023-04-06T13:32:42;9.20;99.90
7576;DHT22;3829;50.798;4.358;2023-04-06T13:35:08;9.20;99.90
7576;DHT22;3829;50.798;4.358;2023-04-06T13:37:34;9.40;99.90
7576;DHT22;3829;50.798;4.358;2023-04-06T13:40:02;9.50;99.90
7576;DHT22;3829;50.798;4.358;2023-04-06T13:42:28;9.50;99.90
7576;DHT22;3829;50.798;4.358;2023-04-06T13:44:54;9.50;99.90
7576;DHT22;3829;50.798;4.358;2023-04-06T13:47:19;9.60;99.90
7576;DHT22;3829;50.798;4.358;2023-04-06T13:49:46;9.60;99.90
7576;DHT22;3829;50.798;4.358;2023-04-06T13:52:12;9.60;99.90
7576;DHT22;3829;50.798;4.358;2023-04-06T13:54:37;9.60;99.90
7576;DHT22;3829;50.798;4.358;2023-04-06T13:57:03;9.80;99.90
7576;DHT22;3829;50.798;4.358;2023-04-06T13:59:35;9.50;99.90
7576;DHT22;3829;50.798;4.358;2023-04-06T14:02:02;9.50;99.90
7576;DHT22;3829;50.798;4.358;2023-04-06T14:04:28;9.60;99.90
7576;DHT22;3829;50.798;4.358;2023-04-06T14:06:54;9.50;99.90
7576;DHT22;3829;50.798;4.358;2023-04-06T14:09:19;9.50;99.90
7576;DHT22;3829;50.798;4.358;2023-04-06T14:11:45;9.60;99.90
7576;DHT22;3829;50.798;4.358;2023-04-06T14:14:11;9.50;99.90
7576;DHT22;3829;50.798;4.358;2023-04-06T14:16:37;9.40;99.90
7576;DHT22;3829;50.798;4.358;2023-04-06T14:19:02;9.40;99.90
7576;DHT22;3829;50.798;4.358;2023-04-06T14:21:28;9.40;99.90
7576;DHT22;3829;50.798;4.358;2023-04-06T14:23:54;9.50;99.90
7576;DHT22;3829;50.798;4.358;2023-04-06T14:26:20;9.60;99.90
7576;DHT22;3829;50.798;4.358;2023-04-06T14:28:46;9.60;99.90
7576;DHT22;3829;50.798;4.358;2023-04-06T14:31:14;9.60;99.90
7576;DHT22;3829;50.798;4.358;2023-04-06T14:33:41;9.60;99.90
7576;DHT22;3829;50.798;4.358;2023-04-06T14:36:08;9.70;99.90
7576;DHT22;3829;50.798;4.358;2023-04-06T14:38:35;9.70;99.90
7576;DHT22;3829;50.798;4.358;2023-04-06T14:41:00;9.70;99.90
7576;DHT22;3829;50.798;4.358;2023-04-06T14:43:26;9.80;99.90
7576;DHT22;3829;50.798;4.358;2023-04-06T14:45:52;9.80;99.90
7576;DHT22;3829;50.798;4.358;2023-04-06T14:48:18;10.00;99.90
7576;DHT22;3829;50.798;4.358;2023-04-06T14:50:54;10.10;99.90
7576;DHT22;3829;50.798;4.358;2023-04-06T14:53:22;10.20;99.90
7576;DHT22;3829;50.798;4.358;2023-04-06T14:55:48;10.30;99.90
7576;DHT22;3829;50.798;4.358;2023-04-06T14:58:16;10.30;99.90
7576;DHT22;3829;50.798;4.358;2023-04-06T15:00:42;10.40;99.90
7576;DHT22;3829;50.798;4.358;2023-04-06T15:03:08;10.50;99.90
7576;DHT22;3829;50.798;4.358;2023-04-06T15:05:34;10.50;99.90
7576;DHT22;3829;50.798;4.358;2023-04-06T15:08:00;10.60;99.90
7576;DHT22;3829;50.798;4.358;2023-04-06T15:10:26;10.70;99.90
7576;DHT22;3829;50.798;4.358;2023-04-06T15:12:52;10.80;99.90
7576;DHT22;3829;50.798;4.358;2023-04-06T15:15:19;10.80;99.90
7576;DHT22;3829;50.798;4.358;2023-04-06T15:17:44;11.00;99.90
7576;DHT22;3829;50.798;4.358;2023-04-06T15:20:10;11.30;99.90
7576;DHT22;3829;50.798;4.358;2023-04-06T15:22:36;11.50;99.90
7576;DHT22;3829;50.798;4.358;2023-04-06T15:25:02;11.40;99.90
7576;DHT22;3829;50.798;4.358;2023-04-06T15:27:27;11.30;99.90
7576;DHT22;3829;50.798;4.358;2023-04-06T15:29:53;11.20;99.90
7576;DHT22;3829;50.798;4.358;2023-04-06T15:32:19;11.00;99.90
7576;DHT22;3829;50.798;4.358;2023-04-06T15:34:45;10.90;99.90
7576;DHT22;3829;50.798;4.358;2023-04-06T15:37:10;11.00;99.90
7576;DHT22;3829;50.798;4.358;2023-04-06T15:39:36;10.80;99.90
7576;DHT22;3829;50.798;4.358;2023-04-06T15:42:02;10.90;99.90
7576;DHT22;3829;50.798;4.358;2023-04-06T15:44:28;11.00;99.90
7576;DHT22;3829;50.798;4.358;2023-04-06T15:46:54;11.10;99.90
7576;DHT22;3829;50.798;4.358;2023-04-06T15:49:21;11.10;99.90
7576;DHT22;3829;50.798;4.358;2023-04-06T15:51:48;11.20;99.90
7576;DHT22;3829;50.798;4.358;2023-04-06T15:54:14;11.10;99.90
7576;DHT22;3829;50.798;4.358;2023-04-06T15:56:41;11.10;99.90
7576;DHT22;3829;50.798;4.358;2023-04-06T15:59:07;11.00;99.90
7576;DHT22;3829;50.798;4.358;2023-04-06T16:01:32;11.00;99.90
7576;DHT22;3829;50.798;4.358;2023-04-06T16:03:58;11.00;99.90
7576;DHT22;3829;50.798;4.358;2023-04-06T16:06:27;11.00;99.90
7576;DHT22;3829;50.798;4.358;2023-04-06T16:08:52;10.90;99.90
7576;DHT22;3829;50.798;4.358;2023-04-06T16:11:18;11.00;99.90
7576;DHT22;3829;50.798;4.358;2023-04-06T16:13:44;10.90;99.90
7576;DHT22;3829;50.798;4.358;2023-04-06T16:16:10;11.00;99.90
7576;DHT22;3829;50.798;4.358;2023-04-06T16:18:36;11.10;99.90